Time;durP1;ratioP1;P1;durP2;ratioP2;P2;SDS_P1;SDS_P2;PMS_P1;PMS_P2;Temp;Humidity;BMP_temperature;BMP_pressure;BME280_temperature;BME280_humidity;BME280_pressure;Samples;Min_cycle;Max_cycle;Signal;HPM_P1;HPM_P2
2022/09/28 00:03:48;;;;;;;;;;;;;;;9.72;96.49;97453.50;8145496;29;19935;-77
2022/09/28 00:07:49;;;;;;;;;;;;;;;9.73;96.38;97450.00;8144213;29;19935;-77
2022/09/28 00:11:52;;;;;;;;;;;;;;;9.67;96.34;97467.41;8151658;29;19926;-77
2022/09/28 00:15:58;;;;;;;;;;;;;;;9.70;96.47;97453.53;8148419;29;19937;-78
2022/09/28 00:20:06;;;;;;;;;;;;;;;9.73;96.58;97455.19;8145240;29;19926;-76
2022/09/28 00:24:17;;;;;;;;;;;;;;;9.74;96.26;97449.09;8144696;29;19930;-77
2022/09/28 00:28:19;;;;;;;;;;;;;;;9.74;96.42;97454.28;8150886;29;20016;-77
2022/09/28 00:32:23;;;;;;;;;;;;;;;9.71;95.87;97451.81;8146548;29;19955;-77
2022/09/28 00:36:28;;;;;;;;;;;;;;;9.69;95.76;97447.53;8158226;29;19930;-77
2022/09/28 00:40:29;;;;;;;;;;;;;;;9.67;95.68;97440.66;8150356;29;20321;-77
2022/09/28 00:44:34;;;;;;;;;;;;;;;9.63;96.09;97450.28;8146990;29;19934;-77
2022/09/28 00:48:38;;;;;;;;;;;;;;;9.66;95.61;97449.34;8162188;28;19998;-77
2022/09/28 00:52:52;;;;;;;;;;;;;;;9.67;95.89;97444.09;8141942;29;19935;-77
2022/09/28 00:57:01;;;;;;;;;;;;;;;9.68;96.55;97438.03;8146438;29;19993;-77
2022/09/28 01:01:09;;;;;;;;;;;;;;;9.73;96.78;97431.88;8140846;29;19926;-77
2022/09/28 01:05:11;;;;;;;;;;;;;;;9.74;96.28;97424.03;8137308;29;20018;-77
2022/09/28 01:09:14;;;;;;;;;;;;;;;9.74;96.51;97418.84;8149585;29;19927;-77
2022/09/28 01:13:16;;;;;;;;;;;;;;;9.75;96.18;97425.72;8140103;29;19967;-77
2022/09/28 01:17:25;;;;;;;;;;;;;;;9.73;97.00;97417.16;8139488;28;19927;-77
2022/09/28 01:21:26;;;;;;;;;;;;;;;9.76;96.45;97411.03;8133655;29;19927;-77
2022/09/28 01:25:34;;;;;;;;;;;;;;;9.77;96.83;97425.69;8147674;29;19930;-77
2022/09/28 01:29:43;;;;;;;;;;;;;;;9.80;96.67;97426.41;8135241;29;19982;-77
2022/09/28 01:33:54;;;;;;;;;;;;;;;9.83;97.27;97426.31;8146665;29;20474;-77
2022/09/28 01:38:00;;;;;;;;;;;;;;;9.87;97.11;97422.72;8178292;28;19927;-77
2022/09/28 01:42:04;;;;;;;;;;;;;;;9.89;97.01;97423.53;8178093;28;20412;-77
2022/09/28 01:46:11;;;;;;;;;;;;;;;9.89;97.11;97414.91;8158462;28;19942;-76
2022/09/28 01:50:40;;;;;;;;;;;;;;;9.92;96.61;97404.44;8176390;28;19966;-77
2022/09/28 01:54:53;;;;;;;;;;;;;;;9.93;97.07;97396.59;8157668;28;20316;-77
2022/09/28 01:58:59;;;;;;;;;;;;;;;9.94;97.05;97392.25;8176406;28;20528;-78
2022/09/28 02:03:19;;;;;;;;;;;;;;;9.96;97.21;97390.47;8163638;28;20288;-76
2022/09/28 02:07:41;;;;;;;;;;;;;;;9.96;96.84;97378.34;8166429;28;19930;-77
2022/09/28 02:11:46;;;;;;;;;;;;;;;9.96;96.96;97378.34;8176475;29;20338;-77
2022/09/28 02:15:50;;;;;;;;;;;;;;;9.96;96.49;97383.53;8182829;28;19930;-77
2022/09/28 02:19:52;;;;;;;;;;;;;;;9.94;96.47;97382.75;8173613;28;19926;-78
2022/09/28 02:24:10;;;;;;;;;;;;;;;9.92;96.50;97381.94;8173468;28;20383;-78
2022/09/28 02:28:14;;;;;;;;;;;;;;;9.88;97.01;97377.78;8200697;28;19977;-77
2022/09/28 02:32:23;;;;;;;;;;;;;;;9.89;97.07;97371.69;8181640;28;20383;-77
2022/09/28 02:36:26;;;;;;;;;;;;;;;9.90;97.59;97370.78;8152223;29;19994;-77
2022/09/28 02:40:30;;;;;;;;;;;;;;;9.90;97.06;97378.56;8146513;29;19927;-77
2022/09/28 02:44:53;;;;;;;;;;;;;;;9.90;97.90;97370.78;8156140;29;19927;-78
2022/09/28 02:49:01;;;;;;;;;;;;;;;9.90;97.49;97369.94;8147845;29;19927;-77
2022/09/28 02:53:41;;;;;;;;;;;;;;;9.88;97.73;97364.81;8152175;29;19934;-77
2022/09/28 02:57:49;;;;;;;;;;;;;;;9.85;97.79;97366.63;8159880;29;19934;-77
2022/09/28 03:02:02;;;;;;;;;;;;;;;9.84;97.81;97362.34;8155196;29;19954;-77
2022/09/28 03:06:13;;;;;;;;;;;;;;;9.87;97.96;97367.44;8134946;29;20005;-77
2022/09/28 03:10:24;;;;;;;;;;;;;;;9.86;98.08;97364.00;8167160;28;19986;-78
2022/09/28 03:14:25;;;;;;;;;;;;;;;9.87;98.16;97367.44;8149656;29;19930;-78
2022/09/28 03:18:27;;;;;;;;;;;;;;;9.87;97.91;97370.88;8151728;29;19993;-77
2022/09/28 03:22:34;;;;;;;;;;;;;;;9.86;98.11;97378.69;8154752;29;19977;-77
2022/09/28 03:26:39;;;;;;;;;;;;;;;9.87;98.33;97375.22;8129318;29;20002;-77
2022/09/28 03:30:42;;;;;;;;;;;;;;;9.92;98.27;97383.69;8132640;28;20499;-77
2022/09/28 03:34:43;;;;;;;;;;;;;;;9.94;97.67;97381.91;8176387;29;20691;-77
2022/09/28 03:38:45;;;;;;;;;;;;;;;9.95;98.05;97384.44;8169049;29;19927;-77
2022/09/28 03:42:46;;;;;;;;;;;;;;;9.97;97.87;97385.22;8174112;28;19930;-77
2022/09/28 03:46:47;;;;;;;;;;;;;;;9.98;97.65;97386.06;8176235;28;19989;-77
2022/09/28 03:50:51;;;;;;;;;;;;;;;9.95;98.24;97386.19;8167265;29;19930;-78
2022/09/28 03:54:52;;;;;;;;;;;;;;;9.95;97.74;97387.03;8179086;28;20231;-77
2022/09/28 03:59:01;;;;;;;;;;;;;;;9.96;98.19;97388.72;8169911;28;19926;-77
2022/09/28 04:03:03;;;;;;;;;;;;;;;9.98;98.01;97388.66;8169107;28;20245;-77
2022/09/28 04:07:11;;;;;;;;;;;;;;;9.99;98.28;97388.59;8177841;28;19926;-77
2022/09/28 04:11:12;;;;;;;;;;;;;;;10.00;98.00;97392.03;8182066;28;19926;-77
2022/09/28 04:15:13;;;;;;;;;;;;;;;9.96;97.79;97398.25;8145596;28;20300;-77
2022/09/28 04:19:15;;;;;;;;;;;;;;;9.94;97.83;97393.13;8177923;28;19926;-77
2022/09/28 04:23:16;;;;;;;;;;;;;;;9.91;98.35;97398.41;8163035;29;19926;-77
2022/09/28 04:31:39;;;;;;;;;;;;;;;9.89;98.35;97405.41;8178225;28;19930;-78
2022/09/28 04:35:41;;;;;;;;;;;;;;;9.88;98.23;97390.75;8150730;29;19927;-78
2022/09/28 04:39:42;;;;;;;;;;;;;;;9.86;98.20;97408.06;8138713;29;19938;-77
2022/09/28 04:43:50;;;;;;;;;;;;;;;9.85;97.97;97406.38;8153434;29;19927;-77
2022/09/28 04:47:51;;;;;;;;;;;;;;;9.86;97.99;97408.06;8156674;28;19982;-78
2022/09/28 04:51:53;;;;;;;;;;;;;;;9.88;98.37;97398.50;8143548;29;20609;-77
2022/09/28 04:55:58;;;;;;;;;;;;;;;9.89;97.95;97407.13;8140795;29;19937;-77
2022/09/28 05:00:07;;;;;;;;;;;;;;;9.85;97.56;97413.31;8171737;28;19930;-77
2022/09/28 05:04:15;;;;;;;;;;;;;;;9.76;97.22;97416.22;8135756;29;20592;-78
2022/09/28 05:08:17;;;;;;;;;;;;;;;9.70;97.60;97417.25;8146933;29;19941;-78
2022/09/28 05:12:18;;;;;;;;;;;;;;;9.67;97.76;97422.53;8145306;29;20423;-77
2022/09/28 05:16:19;;;;;;;;;;;;;;;9.61;97.45;97422.72;8127526;29;19927;-77
2022/09/28 05:20:21;;;;;;;;;;;;;;;9.54;97.00;97414.31;8140986;29;19927;-77
2022/09/28 05:24:22;;;;;;;;;;;;;;;9.48;96.39;97417.09;8133228;29;19931;-78
2022/09/28 05:28:25;;;;;;;;;;;;;;;9.38;96.26;97424.31;8143406;29;21202;-77
2022/09/28 05:32:27;;;;;;;;;;;;;;;9.33;96.77;97423.59;8130348;29;19931;-77
2022/09/28 05:36:28;;;;;;;;;;;;;;;9.24;95.97;97420.47;8146875;29;19992;-77
2022/09/28 05:40:30;;;;;;;;;;;;;;;9.17;96.56;97421.56;8140990;29;19989;-77
2022/09/28 05:44:31;;;;;;;;;;;;;;;9.10;95.96;97431.22;8148561;29;20103;-77
2022/09/28 05:48:39;;;;;;;;;;;;;;;9.03;96.11;97425.41;8131853;29;19927;-77
2022/09/28 05:52:40;;;;;;;;;;;;;;;8.94;96.03;97429.97;8142322;29;19963;-77
2022/09/28 05:56:42;;;;;;;;;;;;;;;8.91;96.30;97437.84;8147783;29;19923;-77
2022/09/28 06:00:43;;;;;;;;;;;;;;;8.89;96.37;97440.47;8143249;28;19927;-77
2022/09/28 06:04:47;;;;;;;;;;;;;;;8.91;96.29;97440.44;8147820;29;19938;-77
2022/09/28 06:08:55;;;;;;;;;;;;;;;8.89;96.23;97437.03;8147020;29;19985;-76
2022/09/28 06:12:57;;;;;;;;;;;;;;;8.94;96.13;97446.34;8146126;29;20431;-75
2022/09/28 06:17:05;;;;;;;;;;;;;;;8.99;96.22;97449.69;8138544;28;19927;-77
2022/09/28 06:21:09;;;;;;;;;;;;;;;9.00;96.20;97456.56;8151954;29;20452;-75
2022/09/28 06:25:11;;;;;;;;;;;;;;;9.00;96.41;97458.28;8154598;29;19927;-75
2022/09/28 06:29:17;;;;;;;;;;;;;;;8.97;96.62;97461.78;8150901;29;19927;-75
2022/09/28 06:33:20;;;;;;;;;;;;;;;9.04;96.88;97473.69;8142121;29;19982;-75
2022/09/28 06:37:31;;;;;;;;;;;;;;;9.12;96.72;97470.00;8148545;29;19933;-75
2022/09/28 06:41:33;;;;;;;;;;;;;;;9.20;97.59;97473.25;8161211;28;19990;-75
2022/09/28 06:45:41;;;;;;;;;;;;;;;9.28;98.07;97474.69;8144949;28;19989;-76
2022/09/28 06:49:46;;;;;;;;;;;;;;;9.37;98.62;97482.19;8132338;29;20285;-76
2022/09/28 06:53:47;;;;;;;;;;;;;;;9.45;98.17;97489.72;8151253;29;19926;-76
2022/09/28 06:57:59;;;;;;;;;;;;;;;9.52;98.55;97493.84;8149526;29;19966;-76
2022/09/28 07:02:00;;;;;;;;;;;;;;;9.57;98.46;97514.41;8146348;29;19927;-76
2022/09/28 07:06:03;;;;;;;;;;;;;;;9.63;98.20;97512.47;8137741;29;19936;-76
2022/09/28 07:10:04;;;;;;;;;;;;;;;9.75;98.14;97524.22;8158078;29;19934;-76
2022/09/28 07:14:06;;;;;;;;;;;;;;;9.85;97.66;97522.16;8146139;29;19956;-75
2022/09/28 07:18:34;;;;;;;;;;;;;;;9.98;97.08;97526.06;8151740;29;19938;-75
2022/09/28 07:22:35;;;;;;;;;;;;;;;10.18;96.65;97534.06;8153641;29;20520;-75
2022/09/28 07:26:44;;;;;;;;;;;;;;;10.24;96.16;97533.06;8150073;29;20386;-76
2022/09/28 07:30:45;;;;;;;;;;;;;;;10.24;95.11;97544.28;8143406;29;20308;-76
2022/09/28 07:34:55;;;;;;;;;;;;;;;10.29;94.74;97550.16;8160113;28;20583;-76
2022/09/28 07:39:00;;;;;;;;;;;;;;;10.32;93.59;97556.97;8182237;28;19958;-76
2022/09/28 07:43:05;;;;;;;;;;;;;;;10.39;93.17;97558.47;8170042;28;19926;-76
2022/09/28 07:47:06;;;;;;;;;;;;;;;10.46;93.09;97567.75;8151280;28;19930;-76
2022/09/28 07:51:08;;;;;;;;;;;;;;;10.73;92.22;97572.91;8174539;28;20331;-76
2022/09/28 07:55:09;;;;;;;;;;;;;;;10.91;92.02;97582.66;8182887;28;19930;-77
2022/09/28 07:59:11;;;;;;;;;;;;;;;11.03;90.70;97584.84;8164525;28;19926;-77
2022/09/28 08:03:16;;;;;;;;;;;;;;;11.50;90.46;97588.31;8170829;28;19926;-77
2022/09/28 08:07:24;;;;;;;;;;;;;;;11.84;88.15;97581.84;8157913;28;19926;-77
2022/09/28 08:11:25;;;;;;;;;;;;;;;11.86;86.03;97590.47;8160828;29;19926;-77
2022/09/28 08:15:28;;;;;;;;;;;;;;;12.14;85.22;97592.81;8178771;28;19930;-77
2022/09/28 08:23:57;;;;;;;;;;;;;;;12.22;79.78;97595.16;8170947;28;19930;-76
2022/09/28 08:27:59;;;;;;;;;;;;;;;12.22;81.53;97593.38;8166642;28;19926;-77
2022/09/28 08:32:01;;;;;;;;;;;;;;;12.44;80.33;97598.56;8165194;28;19926;-77
2022/09/28 08:36:03;;;;;;;;;;;;;;;12.86;79.76;97608.97;8179030;28;20331;-77
2022/09/28 08:40:05;;;;;;;;;;;;;;;12.89;78.87;97605.38;8154630;28;19934;-77
2022/09/28 08:44:22;;;;;;;;;;;;;;;12.70;77.44;97598.31;8179235;28;20351;-77
2022/09/28 08:48:42;;;;;;;;;;;;;;;12.72;78.28;97608.69;8170789;28;19941;-77
2022/09/28 08:53:02;;;;;;;;;;;;;;;12.85;77.15;97606.41;8171046;29;20013;-77
2022/09/28 08:57:12;;;;;;;;;;;;;;;12.79;77.55;97612.75;8193217;28;20808;-77
2022/09/28 09:01:17;;;;;;;;;;;;;;;12.62;76.93;97607.38;8169476;28;21172;-78
2022/09/28 09:05:21;;;;;;;;;;;;;;;12.58;77.29;97611.03;8185107;28;20711;-78
2022/09/28 09:09:32;;;;;;;;;;;;;;;12.39;76.24;97606.56;8176551;28;19930;-78
2022/09/28 09:13:46;;;;;;;;;;;;;;;12.48;77.31;97614.91;8179853;28;19948;-78
2022/09/28 09:18:01;;;;;;;;;;;;;;;12.70;76.73;97618.31;8176256;28;20005;-77
2022/09/28 09:22:26;;;;;;;;;;;;;;;12.83;78.59;97616.06;8185950;28;19953;-78
2022/09/28 09:26:37;;;;;;;;;;;;;;;12.84;77.28;97621.19;8152278;29;20422;-78
2022/09/28 09:31:00;;;;;;;;;;;;;;;12.68;76.41;97620.97;8154224;28;19927;-77
2022/09/28 09:35:12;;;;;;;;;;;;;;;12.56;77.30;97631.03;8173777;28;19934;-77
2022/09/28 09:39:16;;;;;;;;;;;;;;;12.96;77.60;97622.44;8187148;28;20252;-77
2022/09/28 09:43:27;;;;;;;;;;;;;;;13.47;75.22;97618.53;8185679;28;19931;-78
2022/09/28 09:47:41;;;;;;;;;;;;;;;13.93;72.38;97624.25;8191120;28;20016;-77
2022/09/28 09:51:43;;;;;;;;;;;;;;;14.28;68.58;97620.00;8172608;28;19927;-77
2022/09/28 09:55:45;;;;;;;;;;;;;;;14.50;68.95;97623.28;8173719;28;19934;-78
2022/09/28 09:59:47;;;;;;;;;;;;;;;14.52;65.13;97618.84;8174118;28;19930;-78
2022/09/28 10:03:57;;;;;;;;;;;;;;;14.61;67.17;97620.19;8164442;28;19927;-78
2022/09/28 10:07:59;;;;;;;;;;;;;;;14.55;66.94;97623.09;8162543;28;19926;-78
2022/09/28 10:12:00;;;;;;;;;;;;;;;14.70;65.60;97607.50;8189290;28;19936;-78
2022/09/28 10:16:04;;;;;;;;;;;;;;;14.88;66.71;97616.19;8183404;28;20509;-78
2022/09/28 10:20:14;;;;;;;;;;;;;;;14.78;64.15;97620.19;8168141;28;19930;-78
2022/09/28 10:24:21;;;;;;;;;;;;;;;14.52;65.22;97631.91;8160224;28;20001;-78
2022/09/28 10:28:46;;;;;;;;;;;;;;;14.15;65.99;97627.56;8176322;28;19956;-78
2022/09/28 10:32:58;;;;;;;;;;;;;;;14.36;65.36;97621.34;8169264;28;19926;-77
2022/09/28 10:37:09;;;;;;;;;;;;;;;14.70;65.40;97623.16;8174939;28;19926;-77
2022/09/28 10:41:12;;;;;;;;;;;;;;;14.72;63.01;97630.91;8157681;29;19926;-78
2022/09/28 10:45:22;;;;;;;;;;;;;;;14.41;62.34;97627.19;8147583;28;19963;-77
2022/09/28 10:49:24;;;;;;;;;;;;;;;14.01;64.34;97635.22;8144363;29;20018;-77
2022/09/28 10:53:26;;;;;;;;;;;;;;;13.64;63.95;97638.63;8146528;29;20501;-78
2022/09/28 10:57:34;;;;;;;;;;;;;;;13.36;66.46;97646.81;8153635;29;19994;-76
2022/09/28 11:01:37;;;;;;;;;;;;;;;13.18;68.68;97645.88;8147410;28;20014;-77
2022/09/28 11:05:39;;;;;;;;;;;;;;;13.17;68.93;97642.38;8160862;29;20010;-77
2022/09/28 11:09:41;;;;;;;;;;;;;;;13.37;70.69;97638.09;8156824;29;19931;-77
2022/09/28 11:13:48;;;;;;;;;;;;;;;13.42;69.47;97631.75;8156223;29;19969;-77
2022/09/28 11:17:50;;;;;;;;;;;;;;;13.35;68.94;97632.94;8143900;29;19966;-77
2022/09/28 11:21:54;;;;;;;;;;;;;;;13.26;68.43;97639.38;8152580;29;19930;-76
2022/09/28 11:26:05;;;;;;;;;;;;;;;13.12;68.01;97630.47;8150571;29;19926;-77
2022/09/28 11:30:21;;;;;;;;;;;;;;;13.24;68.55;97635.16;8172290;28;20175;-77
2022/09/28 11:34:27;;;;;;;;;;;;;;;13.70;65.90;97630.53;8156629;28;20580;-77
2022/09/28 11:39:02;;;;;;;;;;;;;;;13.94;64.54;97623.34;8184458;28;19935;-77
2022/09/28 11:43:16;;;;;;;;;;;;;;;14.23;63.23;97625.44;8184766;28;19993;-77
2022/09/28 11:47:41;;;;;;;;;;;;;;;14.29;61.28;97613.84;8165820;28;19931;-77
2022/09/28 11:51:51;;;;;;;;;;;;;;;13.94;62.48;97608.53;8183034;28;20622;-77
2022/09/28 11:55:57;;;;;;;;;;;;;;;13.89;64.41;97610.53;8178741;28;20261;-77
2022/09/28 12:00:14;;;;;;;;;;;;;;;13.86;65.39;97611.50;8167234;28;20001;-77
2022/09/28 12:04:19;;;;;;;;;;;;;;;14.32;64.34;97605.88;8188810;28;19977;-76
2022/09/28 12:08:24;;;;;;;;;;;;;;;14.67;62.30;97605.03;8179456;28;20603;-77
2022/09/28 12:12:31;;;;;;;;;;;;;;;14.96;61.05;97600.97;8174088;28;19941;-77
2022/09/28 12:16:50;;;;;;;;;;;;;;;15.44;57.67;97602.00;8168205;28;20689;-77
2022/09/28 12:21:21;;;;;;;;;;;;;;;15.95;54.51;97589.66;8179362;28;19926;-77
2022/09/28 12:25:36;;;;;;;;;;;;;;;16.32;53.46;97598.94;8165967;29;20048;-76
2022/09/28 12:29:41;;;;;;;;;;;;;;;16.48;51.92;97597.13;8159860;29;19941;-77
2022/09/28 12:33:51;;;;;;;;;;;;;;;16.65;53.18;97593.53;8157375;28;20044;-76
2022/09/28 12:38:07;;;;;;;;;;;;;;;16.74;52.34;97592.22;8153938;29;19926;-76
2022/09/28 12:42:10;;;;;;;;;;;;;;;16.32;53.25;97606.78;8176743;28;20379;-77
2022/09/28 12:46:38;;;;;;;;;;;;;;;15.95;53.74;97610.59;8156765;28;19926;-77
2022/09/28 12:50:40;;;;;;;;;;;;;;;16.11;54.79;97594.91;8153169;29;19930;-77
2022/09/28 12:55:05;;;;;;;;;;;;;;;16.25;54.72;97600.22;8175692;28;19926;-77
2022/09/28 12:59:24;;;;;;;;;;;;;;;16.07;53.17;97593.38;8168213;28;19989;-77
2022/09/28 13:03:44;;;;;;;;;;;;;;;16.27;53.96;97598.34;8175311;28;19926;-77
2022/09/28 13:07:58;;;;;;;;;;;;;;;16.33;53.89;97588.34;8176609;28;19927;-77
2022/09/28 13:12:14;;;;;;;;;;;;;;;16.08;53.03;97595.91;8161889;28;19985;-77
2022/09/28 13:16:20;;;;;;;;;;;;;;;15.99;54.46;97593.81;8169320;28;20592;-77
2022/09/28 13:20:38;;;;;;;;;;;;;;;15.98;53.41;97597.38;8164182;29;19972;-77
2022/09/28 13:24:43;;;;;;;;;;;;;;;15.74;53.06;97594.28;8170823;29;19937;-77
2022/09/28 13:28:46;;;;;;;;;;;;;;;15.69;53.80;97593.69;8181173;28;19926;-77
2022/09/28 13:32:48;;;;;;;;;;;;;;;15.35;53.39;97592.84;8183669;29;20314;-77
2022/09/28 13:37:08;;;;;;;;;;;;;;;15.03;54.57;97593.66;8170499;28;19930;-77
2022/09/28 13:41:12;;;;;;;;;;;;;;;14.81;56.17;97591.28;8145306;28;19931;-76
2022/09/28 13:45:16;;;;;;;;;;;;;;;14.98;56.83;97588.66;8170056;28;19927;-77
2022/09/28 13:49:41;;;;;;;;;;;;;;;15.28;55.94;97588.03;8159062;28;19927;-77
2022/09/28 13:53:57;;;;;;;;;;;;;;;15.29;55.46;97590.56;8166688;29;20902;-77
2022/09/28 13:58:15;;;;;;;;;;;;;;;15.07;55.50;97587.34;8180751;28;19981;-77
2022/09/28 14:02:25;;;;;;;;;;;;;;;15.01;56.38;97600.72;8166330;28;19926;-77
2022/09/28 14:06:29;;;;;;;;;;;;;;;14.96;55.94;97590.53;8173071;28;19980;-77
2022/09/28 14:10:50;;;;;;;;;;;;;;;14.84;52.49;97593.75;8160062;29;19936;-77
2022/09/28 14:14:59;;;;;;;;;;;;;;;15.20;52.84;97585.78;8174338;29;19930;-77
2022/09/28 14:19:19;;;;;;;;;;;;;;;15.39;53.78;97581.28;8169159;28;19954;-77
2022/09/28 14:23:43;;;;;;;;;;;;;;;15.62;53.70;97598.44;8179955;29;19985;-77
2022/09/28 14:28:13;;;;;;;;;;;;;;;15.72;53.14;97588.28;8190100;28;20017;-77
2022/09/28 14:32:14;;;;;;;;;;;;;;;15.84;52.91;97594.66;8186488;29;19930;-77
2022/09/28 14:41:12;;;;;;;;;;;;;;;16.33;53.54;97583.13;8164206;28;19931;-77
2022/09/28 14:45:33;;;;;;;;;;;;;;;16.47;50.30;97574.47;8170531;28;19970;-77
2022/09/28 14:49:42;;;;;;;;;;;;;;;16.25;50.76;97587.13;8173524;28;19926;-77
2022/09/28 14:53:44;;;;;;;;;;;;;;;16.09;51.82;97591.53;8174823;29;19926;-77
2022/09/28 14:57:51;;;;;;;;;;;;;;;16.20;52.60;97597.00;8155565;28;19926;-77
2022/09/28 15:01:59;;;;;;;;;;;;;;;16.31;51.91;97598.09;8179290;28;19937;-77
2022/09/28 15:06:01;;;;;;;;;;;;;;;16.53;52.91;97589.88;8183374;28;19931;-77
2022/09/28 15:10:23;;;;;;;;;;;;;;;16.52;51.72;97589.97;8156697;28;19942;-77
2022/09/28 15:14:32;;;;;;;;;;;;;;;16.06;51.94;97592.53;8186655;28;19942;-77
2022/09/28 15:18:54;;;;;;;;;;;;;;;15.73;53.21;97602.22;8185128;28;19937;-77
2022/09/28 15:22:57;;;;;;;;;;;;;;;15.39;53.07;97596.13;8127803;29;19961;-77
2022/09/28 15:27:12;;;;;;;;;;;;;;;15.17;53.63;97603.41;8166404;29;19931;-78
2022/09/28 15:31:16;;;;;;;;;;;;;;;14.95;54.45;97601.06;8180503;28;19989;-76
2022/09/28 15:35:20;;;;;;;;;;;;;;;14.96;55.48;97603.59;8161493;28;20384;-77
2022/09/28 15:39:37;;;;;;;;;;;;;;;14.95;57.10;97598.44;8167022;29;19934;-77
2022/09/28 15:43:45;;;;;;;;;;;;;;;15.00;57.52;97605.13;8173945;28;19953;-78
2022/09/28 15:47:48;;;;;;;;;;;;;;;15.84;54.62;97599.88;8186714;28;20339;-77
2022/09/28 15:51:53;;;;;;;;;;;;;;;16.09;54.00;97594.97;8176532;28;19989;-77
2022/09/28 15:55:58;;;;;;;;;;;;;;;16.38;51.94;97598.59;8167405;28;19926;-78
2022/09/28 16:00:03;;;;;;;;;;;;;;;17.18;51.58;97602.69;8162978;29;19930;-78
2022/09/28 16:04:23;;;;;;;;;;;;;;;17.91;49.80;97605.25;8165419;28;19937;-78
2022/09/28 16:08:34;;;;;;;;;;;;;;;20.13;45.82;97602.63;8188381;28;20671;-78
2022/09/28 16:12:36;;;;;;;;;;;;;;;21.97;39.11;97604.53;8157448;29;19937;-77
2022/09/28 16:16:44;;;;;;;;;;;;;;;22.86;36.30;97600.88;8162798;28;19931;-77
2022/09/28 16:20:53;;;;;;;;;;;;;;;21.75;37.00;97598.41;8162347;28;19930;-78
2022/09/28 16:24:59;;;;;;;;;;;;;;;19.36;41.64;97596.56;8166467;29;19941;-76
2022/09/28 16:29:06;;;;;;;;;;;;;;;17.72;45.29;97605.56;8160353;29;19969;-78
2022/09/28 16:33:28;;;;;;;;;;;;;;;16.48;47.76;97606.75;8164244;29;19941;-77
2022/09/28 16:37:31;;;;;;;;;;;;;;;15.63;53.84;97609.75;8144623;29;19927;-78
2022/09/28 16:41:42;;;;;;;;;;;;;;;15.04;55.85;97611.03;8151671;29;20005;-77
2022/09/28 16:45:44;;;;;;;;;;;;;;;14.59;57.87;97622.88;8154280;29;19974;-77
2022/09/28 16:49:46;;;;;;;;;;;;;;;14.19;61.38;97624.75;8143305;29;19927;-77
2022/09/28 16:58:08;;;;;;;;;;;;;;;13.55;65.58;97632.91;8143858;29;19927;-77
2022/09/28 17:02:24;;;;;;;;;;;;;;;13.30;68.15;97640.97;8139158;29;19997;-77
2022/09/28 17:06:45;;;;;;;;;;;;;;;13.06;69.58;97643.75;8148209;29;19978;-77
2022/09/28 17:10:55;;;;;;;;;;;;;;;12.86;69.58;97644.56;8149495;29;19934;-77
2022/09/28 17:15:18;;;;;;;;;;;;;;;12.67;71.07;97647.94;8151564;29;20543;-77
2022/09/28 17:19:28;;;;;;;;;;;;;;;12.48;72.53;97651.34;8165984;28;20021;-77
2022/09/28 17:23:30;;;;;;;;;;;;;;;12.26;72.42;97644.41;8146687;29;19935;-77
2022/09/28 17:27:31;;;;;;;;;;;;;;;12.06;72.69;97645.16;8152321;29;19958;-77
2022/09/28 17:31:32;;;;;;;;;;;;;;;11.89;73.87;97654.53;8151074;29;19926;-77
2022/09/28 17:35:35;;;;;;;;;;;;;;;11.72;74.58;97658.56;8163918;28;19980;-77
2022/09/28 17:39:50;;;;;;;;;;;;;;;11.57;75.76;97659.13;8180144;28;20598;-77
2022/09/28 17:43:51;;;;;;;;;;;;;;;11.41;76.89;97652.75;8161848;29;20557;-77
2022/09/28 17:47:53;;;;;;;;;;;;;;;11.22;77.01;97660.38;8170623;28;19930;-77
2022/09/28 17:51:55;;;;;;;;;;;;;;;11.00;77.74;97669.78;8189649;28;19938;-77
2022/09/28 17:55:56;;;;;;;;;;;;;;;10.84;77.94;97670.31;8178240;29;19933;-77
2022/09/28 17:59:57;;;;;;;;;;;;;;;10.65;78.51;97666.63;8168747;28;20276;-77
2022/09/28 18:04:00;;;;;;;;;;;;;;;10.54;78.89;97671.28;8156638;28;20233;-77
2022/09/28 18:08:03;;;;;;;;;;;;;;;10.44;79.43;97675.09;8189183;28;19934;-77
2022/09/28 18:12:12;;;;;;;;;;;;;;;10.35;80.00;97677.97;8183950;29;19982;-78
2022/09/28 18:16:15;;;;;;;;;;;;;;;10.24;80.82;97686.09;8179975;28;19937;-78
2022/09/28 18:20:17;;;;;;;;;;;;;;;10.18;81.01;97686.22;8160376;28;19926;-78
2022/09/28 18:24:19;;;;;;;;;;;;;;;10.07;81.80;97693.50;8183230;28;20497;-78
2022/09/28 18:28:21;;;;;;;;;;;;;;;10.01;82.34;97707.47;8177710;28;20033;-78
2022/09/28 18:32:23;;;;;;;;;;;;;;;9.98;82.64;97702.38;8167027;29;19930;-77
2022/09/28 18:36:28;;;;;;;;;;;;;;;9.92;82.64;97707.75;8191760;28;19972;-78
2022/09/28 18:40:32;;;;;;;;;;;;;;;9.83;82.40;97710.59;8181619;28;19989;-77
2022/09/28 18:44:33;;;;;;;;;;;;;;;9.73;82.49;97719.53;8145477;28;20585;-78
2022/09/28 18:48:42;;;;;;;;;;;;;;;9.58;83.34;97719.06;8171932;28;19989;-76
2022/09/28 18:52:46;;;;;;;;;;;;;;;9.53;82.90;97722.69;8185486;28;19927;-76
2022/09/28 18:56:49;;;;;;;;;;;;;;;9.42;83.82;97720.38;8185728;29;19926;-78
2022/09/28 19:00:50;;;;;;;;;;;;;;;9.34;83.59;97720.56;8184230;28;19926;-78
2022/09/28 19:04:52;;;;;;;;;;;;;;;9.26;83.51;97721.66;8171145;28;19934;-77
2022/09/28 19:08:54;;;;;;;;;;;;;;;9.12;84.19;97727.19;8190828;28;19930;-78
2022/09/28 19:13:02;;;;;;;;;;;;;;;9.04;84.48;97735.16;8166733;28;19937;-78
2022/09/28 19:17:04;;;;;;;;;;;;;;;8.96;84.38;97741.38;8164617;28;20398;-76
2022/09/28 19:21:07;;;;;;;;;;;;;;;8.90;84.86;97738.97;8183463;28;19953;-76
2022/09/28 19:25:08;;;;;;;;;;;;;;;8.76;85.13;97740.13;8163188;29;19930;-78
2022/09/28 19:29:10;;;;;;;;;;;;;;;8.69;85.85;97742.91;8183279;28;19930;-78
2022/09/28 19:33:11;;;;;;;;;;;;;;;8.64;85.63;97744.78;8163802;28;19926;-78
2022/09/28 19:37:19;;;;;;;;;;;;;;;8.62;85.89;97754.31;8187530;28;19926;-78
2022/09/28 19:41:42;;;;;;;;;;;;;;;8.53;86.13;97749.31;8180321;28;20709;-78
2022/09/28 19:45:45;;;;;;;;;;;;;;;8.46;85.73;97752.06;8173459;28;20589;-78
2022/09/28 19:49:47;;;;;;;;;;;;;;;8.44;86.18;97758.16;8158518;28;20008;-78
2022/09/28 19:53:49;;;;;;;;;;;;;;;8.39;86.47;97754.78;8188226;28;19926;-78
2022/09/28 19:57:50;;;;;;;;;;;;;;;8.29;86.42;97753.28;8164715;29;19970;-78
2022/09/28 20:01:54;;;;;;;;;;;;;;;8.23;86.84;97756.81;8152625;28;19941;-77
2022/09/28 20:06:03;;;;;;;;;;;;;;;8.15;86.79;97758.75;8191300;28;19930;-77
2022/09/28 20:10:05;;;;;;;;;;;;;;;8.09;87.49;97754.56;8181816;28;19974;-77
2022/09/28 20:14:07;;;;;;;;;;;;;;;8.06;87.56;97756.31;8183697;28;20064;-77
2022/09/28 20:18:11;;;;;;;;;;;;;;;8.03;87.95;97764.16;8178506;28;19930;-77
2022/09/28 20:22:12;;;;;;;;;;;;;;;7.98;87.77;97769.41;8169410;28;19981;-77
2022/09/28 20:26:14;;;;;;;;;;;;;;;7.91;87.59;97764.41;8183015;28;19981;-77
2022/09/28 20:30:15;;;;;;;;;;;;;;;7.83;87.86;97772.31;8159268;28;19977;-77
2022/09/28 20:34:23;;;;;;;;;;;;;;;7.77;87.87;97768.13;8167665;29;19927;-77
2022/09/28 20:38:25;;;;;;;;;;;;;;;7.73;88.04;97773.38;8181876;28;19934;-77
2022/09/28 20:42:26;;;;;;;;;;;;;;;7.68;88.21;97768.28;8157221;28;20549;-77
2022/09/28 20:46:35;;;;;;;;;;;;;;;7.66;88.68;97772.63;8127280;28;19927;-76
2022/09/28 20:50:37;;;;;;;;;;;;;;;7.62;88.73;97775.31;8186340;28;19927;-76
2022/09/28 20:54:38;;;;;;;;;;;;;;;7.56;88.72;97781.44;8178872;28;20417;-78
2022/09/28 20:58:39;;;;;;;;;;;;;;;7.46;88.50;97785.91;8165293;28;19926;-78
2022/09/28 21:02:41;;;;;;;;;;;;;;;7.39;88.59;97780.91;8161048;29;20367;-78
2022/09/28 21:06:48;;;;;;;;;;;;;;;7.30;88.79;97770.72;8154798;28;19981;-77
2022/09/28 21:10:53;;;;;;;;;;;;;;;7.24;89.03;97775.13;8165044;28;19930;-78
2022/09/28 21:14:54;;;;;;;;;;;;;;;7.19;89.12;97773.50;8158217;29;19926;-77
2022/09/28 21:18:56;;;;;;;;;;;;;;;7.08;88.79;97780.56;8165681;28;20063;-77
2022/09/28 21:23:04;;;;;;;;;;;;;;;7.02;89.02;97778.09;8152132;29;19927;-78
2022/09/28 21:27:05;;;;;;;;;;;;;;;6.97;89.41;97773.81;8163045;28;19955;-77
2022/09/28 21:31:09;;;;;;;;;;;;;;;7.02;89.62;97767.75;8179239;28;19926;-77
2022/09/28 21:35:10;;;;;;;;;;;;;;;7.01;90.11;97768.66;8180679;28;20205;-77
2022/09/28 21:39:12;;;;;;;;;;;;;;;7.03;90.51;97778.06;8166838;28;19981;-78
2022/09/28 21:43:14;;;;;;;;;;;;;;;6.95;89.84;97780.75;8152385;29;19930;-77
2022/09/28 21:47:21;;;;;;;;;;;;;;;6.84;89.83;97785.25;8161211;28;19926;-78
2022/09/28 21:51:23;;;;;;;;;;;;;;;6.85;90.28;97776.63;8178222;28;19981;-77
2022/09/28 21:55:24;;;;;;;;;;;;;;;6.81;90.97;97777.53;8145622;29;19993;-77